Time;durP1;ratioP1;P1;durP2;ratioP2;P2;SDS_P1;SDS_P2;PMS_P1;PMS_P2;Temp;Humidity;BMP_temperature;BMP_pressure;BME280_temperature;BME280_humidity;BME280_pressure;Samples;Min_cycle;Max_cycle;Signal;HPM_P1;HPM_P2
2020/12/19 00:00:38;;;;;;;56.75;28.73;;;4.20;93.80;;;;;;4953358;28;20339;-76
2020/12/19 00:03:04;;;;;;;;;;;4.20;93.80;;;;;;4952792;29;20159;-77
2020/12/19 00:05:30;;;;;;;54.63;28.63;;;4.20;93.80;;;;;;4953525;28;19918;-76
2020/12/19 00:07:56;;;;;;;64.90;32.17;;;4.20;93.80;;;;;;4952847;28;20030;-75
2020/12/19 00:10:21;;;;;;;;;;;4.20;93.80;;;;;;4954328;28;20035;-77
2020/12/19 00:12:47;;;;;;;61.42;29.80;;;4.10;93.70;;;;;;4953695;28;20041;-77
2020/12/19 00:15:13;;;;;;;;;;;4.20;93.80;;;;;;4954310;28;20518;-76
2020/12/19 00:17:39;;;;;;;58.92;30.77;;;4.10;94.00;;;;;;4952836;28;19914;-77
2020/12/19 00:20:04;;;;;;;;;;;4.10;93.80;;;;;;4952854;29;20106;-77
2020/12/19 00:22:30;;;;;;;50.85;27.50;;;4.10;93.80;;;;;;4967859;28;19911;-77
2020/12/19 00:24:56;;;;;;;;;;;4.10;93.80;;;;;;4955996;29;20093;-76
2020/12/19 00:27:21;;;;;;;56.42;28.40;;;4.20;93.90;;;;;;4952580;28;19993;-76
2020/12/19 00:29:47;;;;;;;;;;;4.20;93.90;;;;;;4952093;29;20035;-77
2020/12/19 00:32:12;;;;;;;66.90;30.92;;;4.20;93.90;;;;;;4951499;29;19910;-77
2020/12/19 00:34:38;;;;;;;;;;;4.10;93.80;;;;;;4951624;29;20028;-77
2020/12/19 00:37:04;;;;;;;50.90;24.92;;;4.10;93.80;;;;;;4953184;28;19911;-77
2020/12/19 00:39:29;;;;;;;;;;;4.10;93.80;;;;;;4953205;29;20029;-77
2020/12/19 00:41:55;;;;;;;55.70;26.48;;;4.10;93.60;;;;;;4951118;28;20379;-76
2020/12/19 00:44:21;;;;;;;;;;;4.10;93.60;;;;;;4968054;28;20055;-77
2020/12/19 00:46:52;;;;;;;44.88;21.63;;;4.00;93.50;;;;;;4953563;28;20413;-77
2020/12/19 00:49:18;;;;;;;31.88;16.25;;;4.00;93.50;;;;;;4954734;28;20069;-76
2020/12/19 00:51:44;;;;;;;;;;;3.90;93.10;;;;;;4952986;28;20067;-77
2020/12/19 00:54:09;;;;;;;31.92;14.13;;;3.90;93.00;;;;;;4967133;28;19916;-76
2020/12/19 00:56:35;;;;;;;;;;;3.80;93.00;;;;;;4952455;29;20051;-76
2020/12/19 00:59:01;;;;;;;36.22;14.30;;;3.80;93.00;;;;;;4952249;28;19914;-77
2020/12/19 01:01:28;;;;;;;29.10;14.95;;;3.80;93.00;;;;;;4953158;28;20114;-77
2020/12/19 01:03:54;;;;;;;;;;;3.70;93.10;;;;;;4953970;28;20031;-77
2020/12/19 01:06:22;;;;;;;27.52;14.30;;;3.70;93.10;;;;;;4951603;28;20343;-77
2020/12/19 01:08:51;;;;;;;27.63;14.75;;;3.70;93.10;;;;;;4953186;28;20502;-77
2020/12/19 01:11:19;;;;;;;27.33;14.27;;;3.70;93.00;;;;;;4952044;28;20027;-76
2020/12/19 01:13:45;;;;;;;25.40;13.77;;;3.60;93.00;;;;;;4956060;28;20074;-77
2020/12/19 01:16:15;;;;;;;;;;;3.60;93.00;;;;;;4954014;28;20050;-77
2020/12/19 01:18:44;;;;;;;22.92;11.80;;;3.60;92.90;;;;;;4952766;28;20377;-78
2020/12/19 01:21:14;;;;;;;27.63;12.55;;;3.60;92.70;;;;;;4952816;29;20047;-77
2020/12/19 01:23:40;;;;;;;22.27;11.45;;;3.60;92.70;;;;;;4952171;28;20023;-78
2020/12/19 01:26:05;;;;;;;;;;;3.60;92.60;;;;;;4967540;28;20090;-76
2020/12/19 01:28:31;;;;;;;20.85;11.77;;;3.60;92.40;;;;;;4952738;28;19997;-77
2020/12/19 01:31:00;;;;;;;;;;;3.60;92.20;;;;;;4954771;28;20416;-77
2020/12/19 01:33:26;;;;;;;21.40;10.13;;;3.60;92.20;;;;;;4953993;28;19993;-77
2020/12/19 01:35:51;;;;;;;;;;;3.60;92.20;;;;;;4951855;29;20126;-77
2020/12/19 01:38:17;;;;;;;21.83;10.98;;;3.60;92.20;;;;;;4953035;28;20414;-76
2020/12/19 01:40:47;;;;;;;;;;;3.60;92.20;;;;;;4950057;29;20035;-77
2020/12/19 01:43:12;;;;;;;17.63;10.32;;;3.60;92.00;;;;;;4950628;28;20372;-77
2020/12/19 01:45:38;;;;;;;;;;;3.60;92.00;;;;;;4950691;29;20039;-76
2020/12/19 01:48:13;;;;;;;22.25;11.38;;;3.60;91.90;;;;;;4950738;29;19910;-77
2020/12/19 01:50:38;;;;;;;18.67;10.20;;;3.60;92.00;;;;;;4966563;28;20101;-76
2020/12/19 01:53:04;;;;;;;;;;;3.60;91.90;;;;;;4952478;29;20488;-77
2020/12/19 01:55:32;;;;;;;17.98;9.90;;;3.60;91.90;;;;;;4951822;28;19910;-77
2020/12/19 01:57:58;;;;;;;18.58;9.65;;;3.60;91.90;;;;;;4950871;28;20035;-76
2020/12/19 02:00:24;;;;;;;;;;;3.60;91.90;;;;;;4967126;28;20042;-76
2020/12/19 02:02:49;;;;;;;16.33;8.82;;;3.60;91.80;;;;;;4953644;29;19906;-77
2020/12/19 02:05:15;;;;;;;;;;;3.60;91.80;;;;;;4952232;28;20098;-77
2020/12/19 02:07:40;;;;;;;14.85;8.00;;;3.60;91.60;;;;;;4950535;28;19914;-75
2020/12/19 02:10:06;;;;;;;;;;;3.60;91.60;;;;;;4966957;28;20396;-76
2020/12/19 02:12:32;;;;;;;12.75;7.13;;;3.60;91.50;;;;;;4951323;28;19997;-77
2020/12/19 02:14:57;;;;;;;;;;;3.60;91.40;;;;;;4952531;28;20031;-76
2020/12/19 02:17:23;;;;;;;10.32;6.35;;;3.60;91.40;;;;;;4952246;28;20768;-77
2020/12/19 02:19:48;;;;;;;;;;;3.60;91.30;;;;;;4967129;28;20019;-76
2020/12/19 02:22:14;;;;;;;9.82;5.80;;;3.60;91.20;;;;;;4949297;28;19965;-77
2020/12/19 02:24:40;;;;;;;;;;;3.60;91.00;;;;;;4951271;28;20125;-76
2020/12/19 02:27:05;;;;;;;11.35;6.32;;;3.60;91.10;;;;;;4955405;28;19910;-77
2020/12/19 02:29:31;;;;;;;;;;;3.60;91.20;;;;;;4953442;28;20496;-76
2020/12/19 02:32:00;;;;;;;10.30;4.78;;;3.50;90.90;;;;;;4951934;28;19911;-76
2020/12/19 02:34:26;;;;;;;10.05;5.25;;;3.50;90.70;;;;;;4959387;28;20131;-79
2020/12/19 02:36:52;;;;;;;10.13;4.53;;;3.50;90.80;;;;;;4945405;29;20031;-79
2020/12/19 02:39:18;;;;;;;8.27;4.88;;;3.50;90.70;;;;;;4963000;28;20038;-77
2020/12/19 02:41:45;;;;;;;;;;;3.50;90.70;;;;;;4948450;28;20111;-78
2020/12/19 02:44:16;;;;;;;9.68;5.10;;;3.50;90.70;;;;;;4944739;28;20379;-78
2020/12/19 02:46:42;;;;;;;9.77;4.88;;;3.40;90.70;;;;;;4943339;28;20551;-78
2020/12/19 02:49:08;;;;;;;;;;;3.50;90.80;;;;;;4929734;28;20748;-78
2020/12/19 02:51:33;;;;;;;8.15;4.90;;;3.50;90.60;;;;;;4931131;28;19910;-79
2020/12/19 02:53:59;;;;;;;;;;;3.50;90.70;;;;;;4929538;28;20035;-78
2020/12/19 02:56:25;;;;;;;9.90;5.30;;;3.40;90.70;;;;;;4928856;28;20660;-78
2020/12/19 02:58:51;;;;;;;;;;;3.40;90.70;;;;;;4943353;28;20504;-77
2020/12/19 03:01:16;;;;;;;10.15;5.75;;;3.40;90.90;;;;;;4926362;28;19925;-79
2020/12/19 03:03:42;;;;;;;;;;;3.40;90.80;;;;;;4944001;28;20122;-77
2020/12/19 03:06:08;;;;;;;10.77;6.40;;;3.40;90.80;;;;;;4928661;28;19937;-77
2020/12/19 03:08:33;;;;;;;;;;;3.40;90.90;;;;;;4939500;28;20066;-77
2020/12/19 03:10:59;;;;;;;13.63;6.50;;;3.40;91.00;;;;;;4945872;28;19906;-77
2020/12/19 03:13:25;;;;;;;;;;;3.40;90.90;;;;;;4947163;28;20031;-77
2020/12/19 03:15:51;;;;;;;18.85;7.80;;;3.40;91.00;;;;;;4949519;28;19934;-79
2020/12/19 03:18:16;;;;;;;11.63;6.85;;;3.40;91.00;;;;;;4962906;28;20082;-77
2020/12/19 03:20:42;;;;;;;;;;;3.40;91.40;;;;;;4962822;28;20062;-77
2020/12/19 03:23:08;;;;;;;13.55;7.15;;;3.40;91.20;;;;;;4947657;28;19917;-78
2020/12/19 03:25:33;;;;;;;;;;;3.40;91.30;;;;;;4961510;28;20492;-77
2020/12/19 03:27:59;;;;;;;13.10;6.88;;;3.40;91.30;;;;;;4946288;28;19917;-77
2020/12/19 03:33:08;;;;;;;15.30;8.27;;;3.50;91.50;;;;;;4948552;28;19921;-77
2020/12/19 03:35:34;;;;;;;;;;;3.40;91.40;;;;;;4966172;28;20031;-78
2020/12/19 03:38:01;;;;;;;11.45;7.32;;;3.40;91.40;;;;;;4952014;28;20044;-78
2020/12/19 03:40:27;;;;;;;9.52;6.47;;;3.40;91.40;;;;;;4955070;28;20039;-78
2020/12/19 03:42:53;;;;;;;;;;;3.40;91.30;;;;;;4955008;28;20035;-78
2020/12/19 03:45:19;;;;;;;10.13;6.55;;;3.50;91.40;;;;;;4950876;28;19906;-77
2020/12/19 03:47:45;;;;;;;12.20;7.55;;;3.50;91.30;;;;;;4950826;28;20047;-78
2020/12/19 03:50:10;;;;;;;;;;;3.40;91.40;;;;;;4951486;28;20030;-77
2020/12/19 03:52:36;;;;;;;13.13;7.45;;;3.40;91.30;;;;;;4948610;29;19914;-77
2020/12/19 03:55:02;;;;;;;;;;;3.40;91.30;;;;;;4965697;28;20034;-77
2020/12/19 03:57:30;;;;;;;11.43;7.20;;;3.40;91.30;;;;;;4950892;28;19922;-77
2020/12/19 03:59:56;;;;;;;10.73;7.03;;;3.40;91.50;;;;;;4950861;28;20031;-77
2020/12/19 04:02:24;;;;;;;;;;;3.40;91.10;;;;;;4952320;28;20123;-77
2020/12/19 04:04:50;;;;;;;9.10;5.90;;;3.40;91.10;;;;;;4952490;28;19925;-78
2020/12/19 04:07:15;;;;;;;;;;;3.40;91.10;;;;;;4952579;28;20110;-77
2020/12/19 04:09:41;;;;;;;8.32;4.50;;;3.30;91.00;;;;;;4950791;28;20382;-77
2020/12/19 04:12:06;;;;;;;;;;;3.40;91.00;;;;;;4951619;28;20043;-77
2020/12/19 04:14:39;;;;;;;8.98;5.20;;;3.40;90.80;;;;;;4950176;28;19942;-77
2020/12/19 04:17:07;;;;;;;8.93;5.32;;;3.40;90.80;;;;;;4951104;28;20480;-77
2020/12/19 04:19:33;;;;;;;7.57;4.63;;;3.40;90.80;;;;;;4949929;28;20028;-78
2020/12/19 04:21:59;;;;;;;;;;;3.40;90.70;;;;;;4950809;28;20046;-77
2020/12/19 04:24:25;;;;;;;6.25;4.25;;;3.40;90.00;;;;;;4948745;28;19933;-77
2020/12/19 04:26:50;;;;;;;;;;;3.40;90.00;;;;;;4950540;28;20059;-77
2020/12/19 04:29:16;;;;;;;9.45;4.47;;;3.40;89.70;;;;;;4953950;28;19910;-78
2020/12/19 04:31:41;;;;;;;;;;;3.40;89.70;;;;;;4967388;28;20354;-77
2020/12/19 04:34:07;;;;;;;7.05;4.25;;;3.40;90.00;;;;;;4966258;28;20001;-77
2020/12/19 04:36:32;;;;;;;;;;;3.40;89.90;;;;;;4953605;28;20071;-77
2020/12/19 04:38:58;;;;;;;7.88;4.40;;;3.40;90.00;;;;;;4951011;28;19911;-77
2020/12/19 04:41:23;;;;;;;;;;;3.40;90.00;;;;;;4953602;28;20047;-77
2020/12/19 04:43:49;;;;;;;10.88;4.63;;;3.40;90.20;;;;;;4967833;28;20286;-77
2020/12/19 04:46:15;;;;;;;;;;;3.40;90.00;;;;;;4953055;28;20066;-77
2020/12/19 04:48:42;;;;;;;7.57;4.85;;;3.40;90.20;;;;;;4953272;28;19997;-77
2020/12/19 04:51:08;;;;;;;8.77;5.05;;;3.40;90.30;;;;;;4953130;28;20460;-77
2020/12/19 04:53:33;;;;;;;;;;;3.40;90.20;;;;;;4955379;28;20110;-79
2020/12/19 04:55:59;;;;;;;7.45;4.50;;;3.40;90.40;;;;;;4953243;28;20303;-77
2020/12/19 04:58:25;;;;;;;;;;;3.40;90.40;;;;;;4951838;28;20031;-77
2020/12/19 05:00:51;;;;;;;8.40;5.45;;;3.40;90.30;;;;;;4966951;28;19972;-77
2020/12/19 05:03:16;;;;;;;;;;;3.50;90.40;;;;;;4952125;28;20031;-77
2020/12/19 05:05:43;;;;;;;7.47;4.78;;;3.50;90.70;;;;;;4952180;28;19910;-77
2020/12/19 05:08:10;;;;;;;6.85;4.05;;;3.50;90.50;;;;;;4951683;28;20055;-77
2020/12/19 05:10:36;;;;;;;9.20;5.45;;;3.50;90.60;;;;;;4965970;28;20128;-77
2020/12/19 05:13:02;;;;;;;8.35;5.82;;;3.50;90.60;;;;;;4952073;28;20563;-77
2020/12/19 05:15:27;;;;;;;;;;;3.50;90.60;;;;;;4952657;28;20056;-77
2020/12/19 05:17:54;;;;;;;7.50;4.47;;;3.50;90.70;;;;;;4955196;28;19913;-78
2020/12/19 05:20:26;;;;;;;9.55;5.90;;;3.50;90.40;;;;;;4967951;28;20078;-76
2020/12/19 05:22:53;;;;;;;10.25;6.35;;;3.50;90.40;;;;;;4952966;28;20496;-78
2020/12/19 05:25:22;;;;;;;13.20;7.18;;;3.50;90.50;;;;;;4952639;28;20034;-77
2020/12/19 05:27:48;;;;;;;12.57;6.75;;;3.50;90.40;;;;;;4953067;28;20031;-77
2020/12/19 05:30:16;;;;;;;12.73;7.70;;;3.50;90.50;;;;;;4953204;28;20038;-78
2020/12/19 05:32:52;;;;;;;12.63;6.95;;;3.50;90.50;;;;;;4952961;28;20157;-77
2020/12/19 05:35:22;;;;;;;;;;;3.50;90.60;;;;;;4953928;28;20024;-76
2020/12/19 05:38:01;;;;;;;10.32;6.10;;;3.50;90.60;;;;;;4952870;28;19935;-77
2020/12/19 05:40:28;;;;;;;14.95;8.02;;;3.50;90.60;;;;;;4966870;28;20027;-78
2020/12/19 05:42:55;;;;;;;13.23;8.10;;;3.50;90.40;;;;;;4954495;28;20055;-76
2020/12/19 05:45:23;;;;;;;13.50;8.30;;;3.60;90.50;;;;;;4968016;28;20026;-77
2020/12/19 05:47:49;;;;;;;14.23;8.30;;;3.50;90.60;;;;;;4953984;28;20023;-78
2020/12/19 05:50:16;;;;;;;12.20;7.68;;;3.50;90.50;;;;;;4952689;28;20038;-77
2020/12/19 05:52:42;;;;;;;17.85;9.05;;;3.60;90.50;;;;;;4967555;28;20031;-77
2020/12/19 05:55:11;;;;;;;;;;;3.60;90.60;;;;;;4951926;28;20063;-77
2020/12/19 05:57:38;;;;;;;15.48;7.00;;;3.50;90.40;;;;;;4949522;28;19918;-77
2020/12/19 06:00:06;;;;;;;13.07;7.40;;;3.50;90.40;;;;;;4966242;28;20062;-77
2020/12/19 06:02:34;;;;;;;12.18;7.28;;;3.50;90.40;;;;;;4951513;28;20489;-77
2020/12/19 06:05:01;;;;;;;13.77;7.88;;;3.50;90.60;;;;;;4951436;28;20031;-78
2020/12/19 06:07:29;;;;;;;14.30;9.05;;;3.60;90.60;;;;;;4955365;28;20399;-81
2020/12/19 06:09:55;;;;;;;15.55;8.90;;;3.50;90.70;;;;;;4950143;28;20038;-76
2020/12/19 06:12:37;;;;;;;29.23;14.57;;;3.60;90.80;;;;;;4965766;28;20023;-77
2020/12/19 06:15:04;;;;;;;34.33;16.33;;;3.50;90.90;;;;;;4949884;29;20707;-77
2020/12/19 06:17:50;;;;;;;30.92;16.05;;;3.60;91.10;;;;;;4951034;28;20023;-77
2020/12/19 06:20:16;;;;;;;29.35;14.35;;;3.60;91.20;;;;;;4950895;29;20027;-77
2020/12/19 06:22:43;;;;;;;24.38;15.02;;;3.50;91.30;;;;;;4964924;28;20050;-77
2020/12/19 06:25:08;;;;;;;21.75;12.80;;;3.50;91.40;;;;;;4951029;29;20490;-77
2020/12/19 06:27:34;;;;;;;;;;;3.50;91.40;;;;;;4950351;29;20030;-78
2020/12/19 06:30:00;;;;;;;28.70;16.17;;;3.50;91.50;;;;;;4950307;28;19965;-76
2020/12/19 06:32:28;;;;;;;28.02;14.80;;;3.50;91.50;;;;;;4967108;28;20035;-76
2020/12/19 06:35:08;;;;;;;26.52;14.00;;;3.50;91.50;;;;;;4948426;29;20019;-76
2020/12/19 06:37:36;;;;;;;31.40;14.40;;;3.50;91.50;;;;;;4963947;28;20031;-76
2020/12/19 06:40:15;;;;;;;28.75;15.20;;;3.50;91.60;;;;;;4949575;28;20058;-75
2020/12/19 06:42:42;;;;;;;32.20;16.98;;;3.50;91.60;;;;;;4949795;28;20043;-76
2020/12/19 06:45:28;;;;;;;27.83;16.00;;;3.50;91.70;;;;;;4948443;29;20574;-76
2020/12/19 06:47:55;;;;;;;30.10;17.42;;;3.50;91.70;;;;;;4964968;28;20069;-76
2020/12/19 06:50:22;;;;;;;54.15;27.60;;;3.50;91.80;;;;;;4950287;28;20503;-76
2020/12/19 06:52:53;;;;;;;110.82;54.60;;;3.50;91.80;;;;;;4964816;28;20118;-76
2020/12/19 06:55:20;;;;;;;86.78;43.35;;;3.50;91.90;;;;;;4953317;28;20053;-76
2020/12/19 06:57:56;;;;;;;54.15;28.88;;;3.50;92.00;;;;;;4948357;29;20154;-76
2020/12/19 07:00:23;;;;;;;;;;;3.60;92.00;;;;;;4965286;28;20032;-76
2020/12/19 07:02:56;;;;;;;51.35;26.65;;;3.60;92.00;;;;;;4948590;29;19918;-76
2020/12/19 07:05:24;;;;;;;55.75;30.63;;;3.50;92.00;;;;;;4964759;28;20508;-76
2020/12/19 07:07:51;;;;;;;47.22;24.80;;;3.50;92.00;;;;;;4963966;28;20810;-75
2020/12/19 07:10:32;;;;;;;87.78;45.20;;;3.50;92.00;;;;;;4965907;28;20114;-75
2020/12/19 07:12:58;;;;;;;48.30;25.17;;;3.50;92.00;;;;;;4949958;29;20506;-76
2020/12/19 07:15:43;;;;;;;;;;;3.50;92.10;;;;;;4951529;28;20110;-76
2020/12/19 07:18:30;;;;;;;45.15;22.40;;;3.50;92.10;;;;;;4951690;28;19911;-77
2020/12/19 07:20:57;;;;;;;50.70;24.42;;;3.50;92.60;;;;;;4951183;28;20131;-75
2020/12/19 07:23:23;;;;;;;47.03;24.50;;;3.50;92.50;;;;;;4949810;28;20036;-74
2020/12/19 07:25:48;;;;;;;;;;;3.40;92.60;;;;;;4949692;29;20393;-76
2020/12/19 07:28:15;;;;;;;52.20;25.35;;;3.40;92.70;;;;;;4948644;29;20105;-76
2020/12/19 07:30:41;;;;;;;57.70;29.40;;;3.50;92.80;;;;;;4949766;28;20118;-75
2020/12/19 07:33:08;;;;;;;;;;;3.50;92.90;;;;;;4965465;28;20800;-76
2020/12/19 07:35:35;;;;;;;63.22;32.78;;;3.50;93.20;;;;;;4949876;28;20695;-76
2020/12/19 07:38:02;;;;;;;57.85;30.33;;;3.40;93.00;;;;;;4949081;29;20059;-75
2020/12/19 07:40:28;;;;;;;59.83;28.48;;;3.40;93.00;;;;;;4965324;28;20035;-76
2020/12/19 07:43:07;;;;;;;;;;;3.40;93.10;;;;;;4953285;28;20042;-77
2020/12/19 07:45:35;;;;;;;51.83;25.08;;;3.40;93.20;;;;;;4966747;28;19934;-76
2020/12/19 07:48:00;;;;;;;50.95;25.00;;;3.50;93.20;;;;;;4965801;28;20031;-77
2020/12/19 07:50:27;;;;;;;;;;;3.50;93.10;;;;;;4953638;28;20083;-77
2020/12/19 07:53:03;;;;;;;49.60;25.98;;;3.50;93.10;;;;;;4949388;28;20417;-76
2020/12/19 07:55:29;;;;;;;;;;;3.50;93.10;;;;;;4964589;28;20059;-76
2020/12/19 07:57:56;;;;;;;46.67;22.33;;;3.60;93.00;;;;;;4949224;28;19973;-76
2020/12/19 08:00:23;;;;;;;43.05;22.42;;;3.60;92.80;;;;;;4949819;28;20024;-76
2020/12/19 08:02:48;;;;;;;47.95;22.00;;;3.60;92.80;;;;;;4949581;28;20059;-76
2020/12/19 08:05:14;;;;;;;;;;;3.60;92.80;;;;;;4950582;28;20070;-76
2020/12/19 08:07:40;;;;;;;40.63;22.50;;;3.70;92.80;;;;;;4951891;28;19906;-76
2020/12/19 08:10:06;;;;;;;;;;;3.70;92.60;;;;;;4964029;28;20389;-76
2020/12/19 08:12:32;;;;;;;35.38;18.83;;;3.70;92.50;;;;;;4949135;28;19910;-77
2020/12/19 08:15:03;;;;;;;;;;;3.80;92.40;;;;;;4951573;28;20027;-76
2020/12/19 08:17:29;;;;;;;33.33;19.42;;;3.80;92.10;;;;;;4949600;28;19957;-76
2020/12/19 08:19:59;;;;;;;28.70;16.42;;;3.80;92.00;;;;;;4953034;28;20054;-77
2020/12/19 08:22:29;;;;;;;39.42;23.98;;;3.80;91.80;;;;;;4953653;28;20051;-76
2020/12/19 08:24:54;;;;;;;42.50;21.58;;;3.90;91.80;;;;;;4951252;29;20031;-76
2020/12/19 08:27:35;;;;;;;;;;;3.80;91.60;;;;;;4953155;28;20039;-76
2020/12/19 08:30:07;;;;;;;32.42;18.55;;;3.80;91.70;;;;;;4951668;28;19914;-76
2020/12/19 08:32:33;;;;;;;38.85;18.83;;;3.80;91.60;;;;;;4953768;29;20086;-77
2020/12/19 08:34:59;;;;;;;;;;;3.80;91.60;;;;;;4967607;28;20043;-77
2020/12/19 08:37:25;;;;;;;27.77;15.85;;;3.80;91.30;;;;;;4966669;28;19946;-76
2020/12/19 08:40:09;;;;;;;;;;;3.80;91.40;;;;;;4967692;28;20043;-76
2020/12/19 08:42:35;;;;;;;27.05;14.10;;;3.80;91.20;;;;;;4952043;28;19920;-75
2020/12/19 08:45:42;;;;;;;28.40;15.70;;;3.80;91.30;;;;;;4952503;29;20552;-76
2020/12/19 08:48:09;;;;;;;28.50;15.75;;;3.80;91.10;;;;;;4930838;29;20062;-76
2020/12/19 08:50:40;;;;;;;25.45;14.00;;;3.70;91.00;;;;;;4949425;28;20055;-76
2020/12/19 08:53:23;;;;;;;23.40;12.45;;;3.70;90.90;;;;;;4967201;28;20027;-75
2020/12/19 08:55:50;;;;;;;31.10;14.98;;;3.70;90.90;;;;;;4955970;28;20051;-76
2020/12/19 08:58:26;;;;;;;28.15;14.95;;;3.70;91.00;;;;;;4951881;28;20038;-76
2020/12/19 09:00:54;;;;;;;28.02;13.93;;;3.70;91.00;;;;;;4966651;28;20035;-75
2020/12/19 09:03:34;;;;;;;24.33;14.07;;;3.70;91.00;;;;;;4951771;28;20031;-76
2020/12/19 09:06:08;;;;;;;30.02;16.27;;;3.70;91.10;;;;;;4952047;28;20123;-76
2020/12/19 09:08:51;;;;;;;29.63;15.80;;;3.70;90.90;;;;;;4952290;29;20035;-76
2020/12/19 09:11:27;;;;;;;39.72;19.50;;;3.70;90.90;;;;;;4952316;28;20031;-77
2020/12/19 09:14:13;;;;;;;43.50;23.00;;;3.70;91.00;;;;;;4953383;28;20031;-76
2020/12/19 09:16:50;;;;;;;38.67;20.00;;;3.70;91.00;;;;;;4967781;28;20033;-75
2020/12/19 09:19:16;;;;;;;38.47;20.70;;;3.70;90.80;;;;;;4970348;28;20123;-76
2020/12/19 09:21:56;;;;;;;31.83;18.20;;;3.70;90.80;;;;;;4966979;28;20058;-76
2020/12/19 09:24:23;;;;;;;30.02;15.50;;;3.70;90.80;;;;;;4966438;28;20085;-75
2020/12/19 09:26:49;;;;;;;30.77;16.02;;;3.80;90.70;;;;;;4952442;28;20572;-76
2020/12/19 09:29:15;;;;;;;;;;;3.80;90.70;;;;;;4967616;28;20023;-76
2020/12/19 09:31:41;;;;;;;27.60;15.40;;;3.80;90.70;;;;;;4950159;28;20414;-76
2020/12/19 09:34:06;;;;;;;;;;;3.80;90.90;;;;;;4952969;28;20031;-76
2020/12/19 09:36:32;;;;;;;23.05;11.85;;;3.80;90.80;;;;;;4952297;28;19988;-76
2020/12/19 09:38:58;;;;;;;;;;;3.80;90.90;;;;;;4952990;29;20031;-76
2020/12/19 09:41:23;;;;;;;24.48;12.65;;;3.80;91.00;;;;;;4955096;28;20083;-79
2020/12/19 09:43:49;;;;;;;;;;;3.80;90.90;;;;;;4954797;28;20031;-76
2020/12/19 09:46:15;;;;;;;28.58;13.43;;;3.80;90.80;;;;;;4950991;28;20379;-76
2020/12/19 09:48:41;;;;;;;25.38;15.00;;;3.80;90.70;;;;;;4953640;28;20031;-77
2020/12/19 09:51:08;;;;;;;;;;;3.80;90.80;;;;;;4954584;29;20082;-76
2020/12/19 09:53:34;;;;;;;28.88;13.15;;;3.80;90.60;;;;;;4949703;28;19906;-75
2020/12/19 09:56:00;;;;;;;28.77;16.65;;;3.90;90.70;;;;;;4950527;28;20063;-75
2020/12/19 09:58:26;;;;;;;;;;;3.90;90.70;;;;;;4951128;29;20476;-76
2020/12/19 10:00:51;;;;;;;25.10;13.90;;;3.90;90.80;;;;;;4950951;28;19918;-76
2020/12/19 10:03:17;;;;;;;;;;;3.90;90.90;;;;;;4966678;28;20820;-76
2020/12/19 10:05:42;;;;;;;25.88;12.88;;;3.80;90.70;;;;;;4952463;28;19910;-80
2020/12/19 10:08:08;;;;;;;;;;;3.80;90.80;;;;;;4950085;28;20693;-77
2020/12/19 10:10:34;;;;;;;34.85;18.13;;;3.80;90.80;;;;;;4949421;28;20602;-76
2020/12/19 10:13:01;;;;;;;20.88;11.10;;;3.90;90.70;;;;;;4951581;29;20024;-77
2020/12/19 10:15:27;;;;;;;20.75;13.30;;;3.90;90.50;;;;;;4950373;28;20094;-76
2020/12/19 10:17:52;;;;;;;;;;;3.90;90.50;;;;;;4951435;28;20027;-76
2020/12/19 10:20:18;;;;;;;22.30;9.38;;;3.90;90.60;;;;;;4949179;29;19956;-76
2020/12/19 10:22:43;;;;;;;;;;;3.90;90.50;;;;;;4951085;28;20043;-76
2020/12/19 10:25:09;;;;;;;22.60;12.73;;;3.90;90.30;;;;;;4951483;28;19942;-77
2020/12/19 10:27:35;;;;;;;;;;;3.80;90.40;;;;;;4950826;29;20043;-75
2020/12/19 10:30:00;;;;;;;44.92;22.88;;;3.80;90.30;;;;;;4953125;29;19921;-75
2020/12/19 10:32:26;;;;;;;;;;;3.80;90.50;;;;;;4951010;28;20492;-76
2020/12/19 10:34:51;;;;;;;49.35;21.88;;;3.80;90.40;;;;;;4950134;28;19910;-75
2020/12/19 10:37:17;;;;;;;;;;;3.90;90.60;;;;;;4951011;28;20050;-75
2020/12/19 10:39:43;;;;;;;101.63;55.72;;;3.90;90.60;;;;;;4950666;28;19910;-76
2020/12/19 10:42:08;;;;;;;;;;;3.90;90.50;;;;;;4950910;28;20423;-76
2020/12/19 10:44:34;;;;;;;27.50;17.40;;;3.90;90.70;;;;;;4965697;28;19906;-76
2020/12/19 10:46:59;;;;;;;;;;;3.90;90.80;;;;;;4965784;28;20035;-76
2020/12/19 10:49:26;;;;;;;32.75;19.73;;;4.00;90.50;;;;;;4951099;28;19916;-77
2020/12/19 10:51:52;;;;;;;51.83;29.88;;;4.00;90.70;;;;;;4951200;28;20024;-76
2020/12/19 10:54:17;;;;;;;;;;;4.00;90.50;;;;;;4953691;29;20094;-76
2020/12/19 10:56:43;;;;;;;33.80;19.30;;;3.90;90.30;;;;;;4951194;28;19930;-76
2020/12/19 10:59:08;;;;;;;;;;;4.00;90.50;;;;;;4955092;29;20027;-76
2020/12/19 11:01:34;;;;;;;19.10;10.50;;;4.00;90.40;;;;;;4966111;28;19918;-75
2020/12/19 11:04:00;;;;;;;;;;;4.00;90.30;;;;;;4955748;29;20497;-76
2020/12/19 11:06:26;;;;;;;19.48;12.80;;;4.00;90.30;;;;;;4952198;28;19917;-76
2020/12/19 11:08:53;;;;;;;25.83;14.38;;;4.00;90.40;;;;;;4949703;29;20022;-76
2020/12/19 11:11:20;;;;;;;24.42;14.15;;;4.00;90.20;;;;;;4964728;28;20027;-76
2020/12/19 11:13:47;;;;;;;23.33;13.07;;;4.10;90.40;;;;;;4948933;29;20090;-76
2020/12/19 11:16:21;;;;;;;23.52;12.40;;;4.10;90.10;;;;;;4950455;28;20106;-76
2020/12/19 11:18:47;;;;;;;34.25;20.85;;;4.10;90.10;;;;;;4951460;28;20039;-76
2020/12/19 11:21:12;;;;;;;;;;;4.20;90.10;;;;;;4949215;29;20062;-76
2020/12/19 11:23:39;;;;;;;20.23;13.25;;;4.10;89.80;;;;;;4948758;28;19958;-76
2020/12/19 11:26:04;;;;;;;26.13;14.25;;;4.20;89.90;;;;;;4964199;28;20439;-76
2020/12/19 11:28:30;;;;;;;;;;;4.20;89.30;;;;;;4950636;29;20046;-76
2020/12/19 11:30:55;;;;;;;23.23;12.68;;;4.10;89.10;;;;;;4949933;28;19950;-76
2020/12/19 11:33:21;;;;;;;;;;;4.10;89.50;;;;;;4950202;28;20035;-76
2020/12/19 11:35:47;;;;;;;22.40;11.20;;;4.20;89.40;;;;;;4947900;28;19945;-76
2020/12/19 11:38:12;;;;;;;;;;;4.10;89.40;;;;;;4951503;28;20038;-75
2020/12/19 11:40:38;;;;;;;23.35;13.15;;;4.20;90.00;;;;;;4952898;28;20375;-76
2020/12/19 11:43:03;;;;;;;;;;;4.20;89.00;;;;;;4949297;28;20085;-76
2020/12/19 11:45:29;;;;;;;23.15;15.82;;;4.20;90.00;;;;;;4949961;28;19910;-78
2020/12/19 11:47:55;;;;;;;;;;;4.20;89.20;;;;;;4967478;28;20051;-76
2020/12/19 11:50:21;;;;;;;16.25;9.68;;;4.20;88.90;;;;;;4949940;28;20554;-75
2020/12/19 11:52:46;;;;;;;;;;;4.20;88.00;;;;;;4949725;28;20063;-76
2020/12/19 11:55:12;;;;;;;12.55;8.07;;;4.10;87.00;;;;;;4950680;28;19918;-76
2020/12/19 11:57:38;;;;;;;;;;;4.20;87.30;;;;;;4953481;28;20492;-75
2020/12/19 12:00:04;;;;;;;26.02;15.95;;;4.20;86.60;;;;;;4951909;29;19910;-77
2020/12/19 12:02:30;;;;;;;11.82;8.00;;;4.20;86.80;;;;;;4968458;28;20142;-75
2020/12/19 12:04:56;;;;;;;;;;;4.30;85.80;;;;;;4956709;28;20117;-75
2020/12/19 12:07:21;;;;;;;9.40;5.80;;;4.30;85.50;;;;;;4951913;28;19910;-76
2020/12/19 12:09:47;;;;;;;;;;;4.30;85.50;;;;;;4954078;28;20024;-76
2020/12/19 12:12:12;;;;;;;26.92;13.32;;;4.30;83.70;;;;;;4953886;28;19972;-76
2020/12/19 12:14:38;;;;;;;;;;;4.30;83.80;;;;;;4953541;28;20451;-77
2020/12/19 12:17:03;;;;;;;13.93;8.95;;;4.30;84.70;;;;;;4953544;28;19911;-76
2020/12/19 12:19:29;;;;;;;;;;;4.40;84.10;;;;;;4968669;28;20034;-77
2020/12/19 12:21:54;;;;;;;16.45;9.70;;;4.30;82.70;;;;;;4954529;28;19922;-76
2020/12/19 12:24:20;;;;;;;;;;;4.30;82.50;;;;;;4954434;28;20023;-76
2020/12/19 12:26:46;;;;;;;16.67;11.60;;;4.20;82.90;;;;;;4954049;28;20087;-76
2020/12/19 12:29:11;;;;;;;;;;;4.20;83.20;;;;;;4955364;29;20488;-76
2020/12/19 12:31:40;;;;;;;20.05;12.13;;;4.20;83.20;;;;;;4953386;28;19911;-75
2020/12/19 12:34:05;;;;;;;26.50;16.23;;;4.20;83.20;;;;;;4953351;28;20059;-76
2020/12/19 12:36:31;;;;;;;;;;;4.20;83.40;;;;;;4953533;29;20109;-76
2020/12/19 12:38:58;;;;;;;23.58;17.20;;;4.20;83.80;;;;;;4953474;28;19910;-76
2020/12/19 12:41:24;;;;;;;24.33;20.10;;;4.20;84.30;;;;;;4952618;28;20035;-75
2020/12/19 12:43:50;;;;;;;22.30;18.33;;;4.20;83.90;;;;;;4953281;28;20035;-76
2020/12/19 12:46:16;;;;;;;;;;;4.20;84.20;;;;;;4952476;29;20086;-75
2020/12/19 12:48:42;;;;;;;31.90;22.55;;;4.20;84.60;;;;;;4952397;28;19942;-76
2020/12/19 12:51:08;;;;;;;;;;;4.30;84.70;;;;;;4954775;28;20065;-78
2020/12/19 12:53:35;;;;;;;22.60;17.77;;;4.20;85.10;;;;;;4954834;28;19956;-75
2020/12/19 12:56:01;;;;;;;13.63;8.63;;;4.20;84.80;;;;;;4951496;29;20075;-76
2020/12/19 12:58:26;;;;;;;;;;;4.10;84.60;;;;;;4953603;28;20516;-76
2020/12/19 13:00:52;;;;;;;11.35;7.38;;;4.10;84.50;;;;;;4952233;28;20327;-76
2020/12/19 13:03:18;;;;;;;;;;;4.10;84.40;;;;;;4953511;28;20035;-76
2020/12/19 13:05:43;;;;;;;13.48;8.60;;;4.00;85.10;;;;;;4949543;28;19910;-76
2020/12/19 13:08:09;;;;;;;;;;;4.00;84.60;;;;;;4954037;28;20028;-76
2020/12/19 13:10:34;;;;;;;14.45;8.63;;;4.00;84.40;;;;;;4953012;28;20684;-75
2020/12/19 13:13:00;;;;;;;;;;;4.00;85.00;;;;;;4952725;28;20031;-75
2020/12/19 13:15:26;;;;;;;13.90;9.15;;;4.00;85.60;;;;;;4954438;28;19911;-77
2020/12/19 13:17:51;;;;;;;;;;;4.00;85.90;;;;;;4968496;28;20484;-76